createdAt,value
2019-05-20T00:01:20.014Z,3.10
2019-05-20T00:03:48.734Z,2.83
2019-05-20T00:06:16.716Z,2.70
2019-05-20T00:08:47.384Z,2.47
2019-05-20T00:11:16.403Z,2.77
2019-05-20T00:13:45.503Z,2.50
2019-05-20T00:16:13.941Z,2.93
2019-05-20T00:18:53.913Z,2.93
2019-05-20T00:21:22.280Z,2.30
2019-05-20T00:23:52.144Z,2.50
2019-05-20T00:26:19.993Z,2.87
2019-05-20T00:28:48.824Z,2.80
2019-05-20T00:31:17.089Z,3.60
2019-05-20T00:33:49.115Z,3.40
2019-05-20T00:36:19.870Z,3.63
2019-05-20T00:39:07.604Z,2.93
2019-05-20T00:41:35.341Z,3.00
2019-05-20T00:44:03.168Z,3.40
2019-05-20T00:46:32.498Z,3.23
2019-05-20T00:49:00.988Z,2.90
2019-05-20T00:51:31.516Z,3.43
2019-05-20T00:54:02.907Z,3.10
2019-05-20T00:56:31.773Z,2.40
2019-05-20T00:58:59.661Z,3.77
2019-05-20T01:01:28.016Z,3.50
2019-05-20T01:03:58.545Z,3.23
2019-05-20T01:06:28.632Z,4.30
2019-05-20T01:08:56.586Z,3.60
2019-05-20T01:11:24.861Z,2.57
2019-05-20T01:13:52.239Z,3.83
2019-05-20T01:16:20.736Z,4.10
2019-05-20T01:18:49.054Z,3.80
2019-05-20T01:21:16.683Z,3.80
2019-05-20T01:23:44.254Z,3.30
2019-05-20T01:26:14.991Z,3.30
2019-05-20T01:28:43.836Z,2.80
2019-05-20T01:31:13.073Z,3.60
2019-05-20T01:33:43.449Z,3.33
2019-05-20T01:36:16.024Z,5.17
2019-05-20T01:38:45.012Z,4.07
2019-05-20T01:41:12.984Z,3.67
2019-05-20T01:43:42.520Z,3.37
2019-05-20T01:46:11.322Z,3.50
2019-05-20T01:48:42.537Z,4.57
2019-05-20T01:51:11.211Z,3.67
2019-05-20T01:53:40.360Z,3.90
2019-05-20T01:56:08.965Z,4.57
2019-05-20T01:58:40.642Z,4.40
2019-05-20T02:01:09.595Z,4.03
2019-05-20T02:03:39.385Z,4.93
2019-05-20T02:06:08.362Z,3.73
2019-05-20T02:08:36.932Z,4.40
2019-05-20T02:11:10.080Z,4.47
2019-05-20T02:13:57.158Z,5.50
2019-05-20T02:16:25.279Z,6.37
2019-05-20T02:18:53.934Z,5.23
2019-05-20T02:21:22.656Z,7.00
2019-05-20T02:23:51.939Z,5.40
2019-05-20T02:26:21.574Z,6.17
2019-05-20T02:28:51.084Z,6.53
2019-05-20T02:31:22.631Z,6.03
2019-05-20T02:33:53.670Z,6.80
2019-05-20T02:36:23.148Z,5.50
2019-05-20T02:38:51.185Z,7.13
2019-05-20T02:41:21.046Z,7.43
2019-05-20T02:43:50.253Z,8.47
2019-05-20T02:46:20.298Z,9.10
2019-05-20T02:48:49.038Z,7.90
2019-05-20T02:51:30.915Z,6.93
2019-05-20T02:54:00.627Z,7.93
2019-05-20T02:56:28.783Z,8.37
2019-05-20T02:58:57.136Z,7.47
2019-05-20T03:01:27.416Z,8.93
2019-05-20T03:04:10.563Z,7.00
2019-05-20T03:06:25.541Z,7.03
2019-05-20T03:08:53.920Z,8.70
2019-05-20T03:11:24.584Z,8.10
2019-05-20T03:13:52.493Z,9.07
2019-05-20T03:16:21.418Z,8.23
2019-05-20T03:18:49.348Z,7.73
2019-05-20T03:21:21.076Z,9.50
2019-05-20T03:23:51.033Z,9.50
2019-05-20T03:26:19.541Z,12.20
2019-05-20T03:28:50.404Z,10.50
2019-05-20T03:31:18.333Z,11.67
2019-05-20T03:33:46.017Z,10.37
2019-05-20T03:36:15.911Z,11.60
2019-05-20T03:38:51.890Z,9.80
2019-05-20T03:41:20.106Z,11.93
2019-05-20T03:43:48.605Z,12.47
2019-05-20T03:46:16.932Z,14.60
2019-05-20T03:48:48.259Z,11.97
2019-05-20T03:51:16.182Z,12.50
2019-05-20T03:53:46.176Z,12.13
2019-05-20T03:56:15.334Z,13.27
2019-05-20T03:58:43.222Z,13.20
2019-05-20T04:01:11.315Z,13.60
2019-05-20T04:03:41.294Z,13.87
2019-05-20T04:06:10.184Z,10.57
2019-05-20T04:08:38.047Z,12.20
2019-05-20T04:11:05.623Z,12.50
2019-05-20T04:13:35.102Z,13.23
2019-05-20T04:16:05.072Z,10.63
2019-05-20T04:18:33.053Z,14.97
2019-05-20T04:21:02.797Z,16.27
2019-05-20T04:23:31.240Z,13.70
2019-05-20T04:26:00.559Z,13.23
2019-05-20T04:28:31.069Z,15.20
2019-05-20T04:31:06.167Z,13.00
2019-05-20T04:33:35.039Z,16.40
2019-05-20T04:36:03.293Z,14.10
2019-05-20T04:38:32.170Z,13.60
2019-05-20T04:41:00.756Z,13.70
2019-05-20T04:43:29.150Z,13.10
2019-05-20T04:45:59.580Z,13.37
2019-05-20T04:48:27.183Z,15.47
2019-05-20T04:50:59.724Z,13.97
2019-05-20T04:53:28.278Z,15.40
2019-05-20T04:55:56.796Z,14.17
2019-05-20T04:58:27.734Z,15.67
2019-05-20T05:00:57.359Z,13.17
2019-05-20T05:03:27.431Z,16.13
2019-05-20T05:05:56.080Z,15.00
2019-05-20T05:08:26.968Z,12.60
2019-05-20T05:10:55.669Z,13.83
2019-05-20T05:13:24.701Z,14.73
2019-05-20T05:15:53.574Z,15.33
2019-05-20T05:18:28.418Z,14.30
2019-05-20T05:20:57.320Z,14.27
2019-05-20T05:23:26.651Z,15.43
2019-05-20T05:26:03.011Z,19.50
2019-05-20T05:28:35.480Z,16.57
2019-05-20T05:31:22.964Z,18.07
2019-05-20T05:33:54.251Z,15.63
2019-05-20T05:36:20.487Z,19.00
2019-05-20T05:38:49.568Z,16.93
2019-05-20T05:41:18.984Z,16.70
2019-05-20T05:43:47.321Z,19.63
2019-05-20T05:46:16.884Z,17.43
2019-05-20T05:48:45.188Z,17.90
2019-05-20T05:51:14.534Z,19.40
2019-05-20T05:53:42.708Z,18.47
2019-05-20T05:56:10.659Z,20.20
2019-05-20T05:58:39.138Z,19.27
2019-05-20T06:01:07.925Z,21.13
2019-05-20T06:03:39.666Z,18.77
2019-05-20T06:06:12.806Z,19.47
2019-05-20T06:08:40.361Z,19.30
2019-05-20T06:11:09.731Z,19.27
2019-05-20T06:13:39.000Z,18.87
2019-05-20T06:16:09.444Z,18.13
2019-05-20T06:18:37.128Z,19.13
2019-05-20T06:21:07.993Z,19.40
2019-05-20T06:23:36.414Z,18.30
2019-05-20T06:26:09.176Z,20.80
2019-05-20T06:28:37.786Z,19.80
2019-05-20T06:31:06.005Z,20.87
2019-05-20T06:33:35.109Z,19.03
2019-05-20T06:36:04.303Z,18.80
2019-05-20T06:38:42.142Z,18.53
2019-05-20T06:41:11.441Z,18.73
2019-05-20T06:43:39.521Z,18.97
2019-05-20T06:46:08.863Z,18.53
2019-05-20T06:48:36.810Z,20.20
2019-05-20T06:51:04.963Z,18.43
2019-05-20T06:53:34.139Z,17.20
2019-05-20T06:56:02.227Z,16.70
2019-05-20T06:58:30.393Z,15.10
2019-05-20T07:00:58.584Z,18.43
2019-05-20T07:03:28.887Z,17.97
2019-05-20T07:05:56.658Z,17.73
2019-05-20T07:08:25.170Z,16.80
2019-05-20T07:10:53.145Z,18.40
2019-05-20T07:13:26.424Z,21.73
2019-05-20T07:15:56.088Z,19.93
2019-05-20T07:18:27.348Z,19.97
2019-05-20T07:20:54.891Z,17.17
2019-05-20T07:23:25.096Z,15.60
2019-05-20T07:25:52.989Z,15.10
2019-05-20T07:28:21.822Z,17.33
2019-05-20T07:30:50.338Z,15.90
2019-05-20T07:33:20.205Z,14.83
2019-05-20T07:35:48.573Z,13.40
2019-05-20T07:38:17.751Z,14.70
2019-05-20T07:40:46.033Z,15.40
2019-05-20T07:43:15.838Z,13.97
2019-05-20T07:45:44.592Z,17.17
2019-05-20T07:48:12.943Z,16.27
2019-05-20T07:50:41.931Z,15.27
2019-05-20T07:53:13.581Z,15.97
2019-05-20T07:55:51.654Z,12.60
2019-05-20T07:58:23.944Z,15.50
2019-05-20T08:00:51.632Z,13.63
2019-05-20T08:03:22.216Z,13.13
2019-05-20T08:05:50.656Z,13.20
2019-05-20T08:08:19.049Z,14.90
2019-05-20T08:10:46.989Z,13.50
2019-05-20T08:13:17.739Z,12.13
2019-05-20T08:15:54.176Z,14.80
2019-05-20T08:18:23.829Z,14.30
2019-05-20T08:20:52.103Z,15.27
2019-05-20T08:23:21.402Z,14.80
2019-05-20T08:25:51.000Z,14.40
2019-05-20T08:28:20.860Z,12.20
2019-05-20T08:30:49.095Z,12.83
2019-05-20T08:33:18.825Z,11.57
2019-05-20T08:36:05.656Z,13.17
2019-05-20T08:38:33.655Z,13.17
2019-05-20T08:44:11.953Z,12.70
2019-05-20T08:46:39.961Z,15.30
2019-05-20T08:49:11.190Z,14.20
2019-05-20T08:51:38.299Z,12.10
2019-05-20T08:54:06.104Z,12.37
2019-05-20T08:56:34.190Z,14.27
2019-05-20T08:59:03.088Z,12.67
2019-05-20T09:01:31.247Z,14.20
2019-05-20T09:03:59.700Z,12.63
2019-05-20T09:06:28.233Z,12.13
2019-05-20T09:08:58.224Z,15.37
2019-05-20T09:11:27.508Z,14.10
2019-05-20T09:13:55.332Z,14.03
2019-05-20T09:16:25.621Z,12.87
2019-05-20T09:18:55.546Z,13.53
2019-05-20T09:21:24.787Z,13.80
2019-05-20T09:23:54.392Z,14.87
2019-05-20T09:26:23.791Z,13.67
2019-05-20T09:28:54.520Z,19.20
2019-05-20T09:31:25.622Z,16.40
2019-05-20T09:33:57.202Z,13.60
2019-05-20T09:36:26.259Z,15.40
2019-05-20T09:38:54.790Z,13.70
2019-05-20T09:41:23.092Z,14.07
2019-05-20T09:43:51.520Z,11.60
2019-05-20T09:46:21.297Z,43.60
2019-05-20T09:48:49.011Z,12.67
2019-05-20T09:51:17.267Z,11.90
2019-05-20T09:53:45.267Z,11.83
2019-05-20T09:56:13.037Z,12.33
2019-05-20T09:58:40.877Z,15.50
2019-05-20T10:01:11.308Z,10.80
2019-05-20T10:03:39.598Z,12.43
2019-05-20T10:06:07.693Z,10.70
2019-05-20T10:08:43.309Z,13.77
2019-05-20T10:11:07.294Z,13.90
2019-05-20T10:13:36.393Z,15.80
2019-05-20T10:16:04.162Z,14.37
2019-05-20T10:18:37.558Z,11.13
2019-05-20T10:21:03.078Z,10.07
2019-05-20T10:23:33.039Z,11.67
2019-05-20T10:26:01.885Z,10.83
2019-05-20T10:28:29.597Z,9.30
2019-05-20T10:30:57.527Z,9.53
2019-05-20T10:33:26.860Z,9.23
2019-05-20T10:35:57.793Z,8.50
2019-05-20T10:38:25.505Z,10.73
2019-05-20T10:40:53.931Z,9.00
2019-05-20T10:43:21.380Z,9.13
2019-05-20T10:45:51.301Z,7.00
2019-05-20T10:48:19.471Z,9.20
2019-05-20T10:50:48.621Z,9.37
2019-05-20T10:53:22.658Z,9.03
2019-05-20T10:55:50.383Z,10.13
2019-05-20T10:58:18.559Z,7.67
2019-05-20T11:01:01.880Z,9.10
2019-05-20T11:03:15.924Z,8.47
2019-05-20T11:05:43.432Z,8.00
2019-05-20T11:08:11.827Z,8.40
2019-05-20T11:10:40.924Z,10.47
2019-05-20T11:13:09.783Z,11.00
2019-05-20T11:15:38.017Z,9.93
2019-05-20T11:18:05.742Z,12.23
2019-05-20T11:20:59.267Z,11.03
2019-05-20T11:23:27.730Z,11.80
2019-05-20T11:25:57.344Z,10.67
2019-05-20T11:28:29.003Z,12.33
2019-05-20T11:30:57.170Z,12.13
2019-05-20T11:33:37.903Z,11.80
2019-05-20T11:36:18.801Z,11.00
2019-05-20T11:38:42.237Z,11.70
2019-05-20T11:41:11.305Z,14.23
2019-05-20T11:43:50.695Z,12.07
2019-05-20T11:46:27.393Z,15.20
2019-05-20T11:48:55.914Z,14.87
2019-05-20T11:51:24.800Z,13.33
2019-05-20T11:53:52.939Z,13.40
2019-05-20T11:56:21.174Z,13.30
2019-05-20T11:58:57.188Z,13.00
2019-05-20T12:01:25.545Z,16.03
2019-05-20T12:03:54.329Z,13.20
2019-05-20T12:06:23.079Z,14.50
2019-05-20T12:08:52.046Z,13.43
2019-05-20T12:11:27.101Z,14.07
2019-05-20T12:13:55.565Z,14.50
2019-05-20T12:16:27.530Z,13.60
2019-05-20T12:18:55.801Z,14.40
2019-05-20T12:21:26.020Z,13.10
2019-05-20T12:23:54.511Z,13.10
2019-05-20T12:26:40.304Z,13.63
2019-05-20T12:29:08.358Z,15.47
2019-05-20T12:31:36.095Z,16.13
2019-05-20T12:34:13.258Z,16.13
2019-05-20T12:36:44.429Z,15.53
2019-05-20T12:39:12.506Z,19.03
2019-05-20T12:41:43.446Z,15.10
2019-05-20T12:44:13.221Z,17.90
2019-05-20T12:46:41.517Z,16.80
2019-05-20T12:49:09.237Z,17.77
2019-05-20T12:51:39.474Z,17.20
2019-05-20T12:54:09.018Z,17.43
2019-05-20T12:56:36.638Z,19.50
2019-05-20T12:59:05.080Z,19.40
2019-05-20T13:01:33.535Z,20.10
2019-05-20T13:04:01.451Z,19.60
2019-05-20T13:06:30.105Z,16.20
2019-05-20T13:08:58.807Z,16.13
2019-05-20T13:11:27.328Z,19.37
2019-05-20T13:13:55.705Z,17.80
2019-05-20T13:16:23.548Z,18.90
2019-05-20T13:18:55.799Z,21.20
2019-05-20T13:21:22.784Z,20.80
2019-05-20T13:23:53.119Z,19.20
2019-05-20T13:26:22.431Z,18.50
2019-05-20T13:28:52.191Z,19.97
2019-05-20T13:31:21.524Z,18.63
2019-05-20T13:33:50.867Z,17.37
2019-05-20T13:36:19.386Z,18.20
2019-05-20T13:39:06.018Z,20.00
2019-05-20T13:41:35.910Z,18.90
2019-05-20T13:44:03.533Z,21.03
2019-05-20T13:46:33.734Z,17.00
2019-05-20T13:49:02.083Z,18.37
2019-05-20T13:51:30.624Z,20.80
2019-05-20T13:54:00.748Z,19.53
2019-05-20T13:56:28.195Z,19.07
2019-05-20T13:58:57.026Z,17.53
2019-05-20T14:01:25.405Z,19.27
2019-05-20T14:03:57.223Z,20.00
2019-05-20T14:06:25.312Z,19.00
2019-05-20T14:08:57.797Z,17.27
2019-05-20T14:11:34.137Z,16.47
2019-05-20T14:13:57.270Z,17.93
2019-05-20T14:16:25.812Z,17.97
2019-05-20T14:18:56.162Z,18.60
2019-05-20T14:21:23.979Z,15.53
2019-05-20T14:23:52.670Z,16.57
2019-05-20T14:26:21.032Z,17.97
2019-05-20T14:28:52.292Z,17.63
2019-05-20T14:31:21.304Z,16.70
2019-05-20T14:33:48.622Z,18.30
2019-05-20T14:36:37.880Z,20.00
2019-05-20T14:38:46.677Z,17.83
2019-05-20T14:41:21.693Z,16.47
2019-05-20T14:43:46.449Z,17.23
2019-05-20T14:46:17.248Z,18.10
2019-05-20T14:48:45.255Z,17.27
2019-05-20T14:51:15.916Z,16.60
2019-05-20T14:53:46.946Z,16.53
2019-05-20T14:56:15.030Z,18.20
2019-05-20T14:58:43.860Z,16.80
2019-05-20T15:01:12.913Z,16.00
2019-05-20T15:03:42.499Z,17.77
2019-05-20T15:06:11.783Z,17.83
2019-05-20T15:08:41.898Z,22.10
2019-05-20T15:11:10.400Z,20.60
2019-05-20T15:13:38.861Z,17.00
2019-05-20T15:16:06.875Z,19.80
2019-05-20T15:18:35.119Z,17.47
2019-05-20T15:21:03.380Z,18.60
2019-05-20T15:23:32.851Z,19.17
2019-05-20T15:26:01.462Z,19.03
2019-05-20T15:28:30.193Z,20.30
2019-05-20T15:31:00.228Z,20.00
2019-05-20T15:33:31.460Z,20.90
2019-05-20T15:36:00.276Z,18.77
2019-05-20T15:38:28.189Z,22.43
2019-05-20T15:40:56.808Z,21.10
2019-05-20T15:43:24.785Z,23.40
2019-05-20T15:45:52.876Z,22.97
2019-05-20T15:48:20.878Z,20.40
2019-05-20T15:50:48.865Z,20.30
2019-05-20T15:53:16.753Z,19.80
2019-05-20T15:55:45.335Z,18.33
2019-05-20T15:58:14.103Z,19.77
2019-05-20T16:00:41.434Z,22.23
2019-05-20T16:03:11.587Z,21.47
2019-05-20T16:05:41.752Z,21.47
2019-05-20T16:08:15.958Z,20.87
2019-05-20T16:10:43.795Z,21.30
2019-05-20T16:13:11.752Z,17.90
2019-05-20T16:15:40.603Z,19.00
2019-05-20T16:18:08.726Z,21.77
2019-05-20T16:20:38.021Z,21.77
2019-05-20T16:23:07.990Z,21.30
2019-05-20T16:25:35.688Z,61.75
2019-05-20T16:28:03.710Z,100.03
2019-05-20T16:30:31.801Z,25.43
2019-05-20T16:33:00.213Z,22.83
2019-05-20T16:35:46.151Z,20.63
2019-05-20T16:38:18.372Z,22.90
2019-05-20T16:40:46.193Z,20.60
2019-05-20T16:43:14.910Z,21.97
2019-05-20T16:45:43.043Z,20.23
2019-05-20T16:48:11.298Z,22.20
2019-05-20T16:50:40.284Z,22.00
2019-05-20T16:53:10.877Z,20.33
2019-05-20T16:55:41.809Z,19.27
2019-05-20T16:58:09.497Z,19.93
2019-05-20T17:00:38.138Z,21.90
2019-05-20T17:03:06.646Z,21.27
2019-05-20T17:05:34.846Z,22.10
2019-05-20T17:08:05.481Z,19.60
2019-05-20T17:10:33.965Z,21.90
2019-05-20T17:13:03.788Z,22.57
2019-05-20T17:15:31.618Z,22.57
2019-05-20T17:18:00.047Z,21.47
2019-05-20T17:20:30.249Z,21.00
2019-05-20T17:22:58.510Z,21.33
2019-05-20T17:25:27.216Z,22.93
2019-05-20T17:27:55.284Z,23.30
2019-05-20T17:30:23.425Z,21.97
2019-05-20T17:32:52.305Z,23.10
2019-05-20T17:35:23.272Z,19.10
2019-05-20T17:37:55.064Z,20.83
2019-05-20T17:40:22.417Z,21.60
2019-05-20T17:42:50.985Z,19.60
2019-05-20T17:45:19.377Z,20.27
2019-05-20T17:48:12.820Z,22.10
2019-05-20T17:50:41.863Z,21.80
2019-05-20T17:53:11.908Z,18.80
2019-05-20T17:55:42.588Z,20.53
2019-05-20T17:58:10.582Z,21.80
2019-05-20T18:00:40.086Z,19.90
2019-05-20T18:03:08.742Z,23.20
2019-05-20T18:05:39.995Z,19.13
2019-05-20T18:08:08.807Z,18.63
2019-05-20T18:10:45.588Z,23.60
2019-05-20T18:13:16.261Z,17.43
2019-05-20T18:15:44.376Z,136.50
2019-05-20T18:18:12.317Z,21.37
2019-05-20T18:20:40.405Z,22.03
2019-05-20T18:23:09.183Z,21.57
2019-05-20T18:25:38.360Z,19.60
2019-05-20T18:28:06.420Z,20.47
2019-05-20T18:30:36.534Z,178.10
2019-05-20T18:33:05.102Z,119.83
2019-05-20T18:35:32.753Z,21.07
2019-05-20T18:38:03.848Z,20.83
2019-05-20T18:40:33.380Z,19.03
2019-05-20T18:43:02.794Z,21.13
2019-05-20T18:45:30.917Z,20.87
2019-05-20T18:48:00.024Z,23.13
2019-05-20T18:50:29.597Z,20.07
2019-05-20T18:52:58.181Z,18.67
2019-05-20T18:55:26.591Z,18.80
2019-05-20T18:57:55.427Z,18.13
2019-05-20T19:00:24.365Z,17.60
2019-05-20T19:02:55.870Z,21.33
2019-05-20T19:05:23.282Z,20.70
2019-05-20T19:07:51.030Z,20.57
2019-05-20T19:10:20.493Z,19.57
2019-05-20T19:12:48.521Z,16.70
2019-05-20T19:15:17.059Z,17.87
2019-05-20T19:17:44.849Z,23.80
2019-05-20T19:20:12.720Z,20.33
2019-05-20T19:22:42.338Z,16.37
2019-05-20T19:25:10.673Z,19.20
2019-05-20T19:27:40.268Z,17.33
2019-05-20T19:30:08.578Z,17.13
2019-05-20T19:32:37.310Z,110.90
2019-05-20T19:35:08.167Z,182.93
2019-05-20T19:37:35.810Z,19.23
2019-05-20T19:40:04.732Z,67.20
2019-05-20T19:42:32.909Z,126.57
2019-05-20T19:45:02.905Z,154.67
2019-05-20T19:47:32.694Z,123.70
2019-05-20T19:50:00.567Z,181.60
2019-05-20T19:52:28.258Z,163.27
2019-05-20T19:54:57.670Z,46.97
2019-05-20T19:57:25.655Z,165.80
2019-05-20T19:59:52.964Z,179.87
2019-05-20T20:02:21.517Z,76.03
2019-05-20T20:04:49.695Z,23.60
2019-05-20T20:07:19.740Z,143.27
2019-05-20T20:09:48.111Z,197.83
2019-05-20T20:12:19.605Z,208.57
2019-05-20T20:14:47.593Z,127.80
2019-05-20T20:17:15.946Z,208.00
2019-05-20T20:19:44.728Z,130.63
2019-05-20T20:22:12.489Z,154.97
2019-05-20T20:24:40.519Z,141.20
2019-05-20T20:27:09.793Z,114.83
2019-05-20T20:29:40.642Z,126.00
2019-05-20T20:32:08.630Z,49.63
2019-05-20T20:34:36.759Z,44.17
2019-05-20T20:37:07.173Z,46.73
2019-05-20T20:39:35.771Z,29.50
2019-05-20T20:42:05.388Z,32.43
2019-05-20T20:44:33.915Z,28.43
2019-05-20T20:47:03.326Z,35.00
2019-05-20T20:49:31.129Z,21.17
2019-05-20T20:51:58.796Z,24.50
2019-05-20T20:54:29.312Z,25.97
2019-05-20T20:56:57.525Z,25.17
2019-05-20T20:59:25.516Z,26.27
2019-05-20T21:01:59.075Z,23.37
2019-05-20T21:04:30.447Z,26.10
2019-05-20T21:07:02.264Z,21.77
2019-05-20T21:09:30.286Z,37.10
2019-05-20T21:12:48.229Z,69.53
2019-05-20T21:15:33.364Z,29.63
2019-05-20T21:18:05.636Z,31.87
2019-05-20T21:20:35.972Z,31.47
2019-05-20T21:23:06.187Z,28.90
2019-05-20T21:25:37.293Z,43.97
2019-05-20T21:28:09.075Z,26.07
2019-05-20T21:30:37.140Z,23.73
2019-05-20T21:33:09.255Z,29.30
2019-05-20T21:35:35.602Z,119.67
2019-05-20T21:38:03.758Z,21.97
2019-05-20T21:40:34.447Z,22.17
2019-05-20T21:43:02.728Z,24.00
2019-05-20T21:45:31.033Z,22.40
2019-05-20T21:47:59.432Z,21.23
2019-05-20T21:50:28.144Z,23.30
2019-05-20T21:52:55.807Z,22.53
2019-05-20T21:55:26.862Z,27.50
2019-05-20T21:57:54.832Z,25.30
2019-05-20T22:00:27.301Z,23.13
2019-05-20T22:02:56.520Z,56.43
2019-05-20T22:05:24.978Z,22.60
2019-05-20T22:07:54.412Z,103.43
2019-05-20T22:10:22.884Z,50.43
2019-05-20T22:12:53.089Z,157.07
2019-05-20T22:15:21.488Z,24.60
2019-05-20T22:17:49.436Z,23.80
2019-05-20T22:20:19.153Z,22.57
2019-05-20T22:22:52.657Z,25.03
2019-05-20T22:25:27.479Z,23.37
2019-05-20T22:27:55.586Z,21.57
2019-05-20T22:30:24.347Z,24.10
2019-05-20T22:32:54.981Z,24.03
2019-05-20T22:35:23.512Z,21.43
2019-05-20T22:37:52.857Z,22.87
2019-05-20T22:40:20.520Z,23.53
2019-05-20T22:42:48.814Z,20.57
2019-05-20T22:45:17.483Z,22.67
2019-05-20T22:47:45.172Z,19.87
2019-05-20T22:50:15.445Z,24.67
2019-05-20T22:52:43.345Z,22.50
2019-05-20T22:55:12.455Z,20.70
2019-05-20T22:57:42.251Z,24.50
2019-05-20T23:00:09.921Z,22.80
2019-05-20T23:02:41.052Z,23.93
2019-05-20T23:05:09.949Z,23.83
2019-05-20T23:07:38.516Z,22.87
2019-05-20T23:10:07.696Z,24.00
2019-05-20T23:12:36.600Z,22.37
2019-05-20T23:15:05.177Z,23.70
2019-05-20T23:17:39.911Z,22.93
2019-05-20T23:20:09.991Z,22.50
2019-05-20T23:22:37.795Z,21.70
2019-05-20T23:25:06.362Z,22.83
2019-05-20T23:27:39.224Z,21.30
2019-05-20T23:30:08.667Z,22.97
2019-05-20T23:32:37.486Z,21.47
2019-05-20T23:35:06.059Z,20.83
2019-05-20T23:37:33.399Z,23.30
2019-05-20T23:40:03.021Z,19.30
2019-05-20T23:42:31.957Z,20.30
2019-05-20T23:45:02.085Z,20.70
2019-05-20T23:47:34.843Z,20.97
2019-05-20T23:50:04.839Z,20.83
2019-05-20T23:52:36.686Z,19.57
2019-05-20T23:55:06.832Z,18.07
2019-05-20T23:57:35.573Z,17.40
